Time;durP1;ratioP1;P1;durP2;ratioP2;P2;SDS_P1;SDS_P2;PMS_P1;PMS_P2;Temp;Humidity;BMP_temperature;BMP_pressure;BME280_temperature;BME280_humidity;BME280_pressure;Samples;Min_cycle;Max_cycle;Signal;HPM_P1;HPM_P2
2023/05/19 00:02:22;;;;;;;;;;;;;;;;;;;;;
2023/05/19 00:04:52;;;;;;;11.70;4.80;;;;;;;;;;6276664;22;20355;-95
2023/05/19 00:07:30;;;;;;;;;;;;;;;;;;;;;
2023/05/19 00:09:59;;;;;;;14.82;5.07;;;;;;;;;;6278406;22;20131;-95
2023/05/19 00:12:45;;;;;;;11.60;5.85;;;;;;;;;;6247359;22;20087;-96
2023/05/19 00:15:30;;;;;;;12.52;5.72;;;;;;;;;;6233900;22;20357;-95
2023/05/19 00:18:05;;;;;;;13.85;5.07;;;;;;;;;;6249143;22;20003;-95
2023/05/19 00:20:33;;;;;;;8.63;4.40;;;;;;;;;;6250920;22;19992;-95
2023/05/19 00:23:19;;;;;;;11.23;5.03;;;;;;;;;;6250786;22;19999;-96
2023/05/19 00:26:02;;;;;;;11.63;4.88;;;;;;;;;;6251375;22;20000;-96
2023/05/19 00:28:27;;;;;;;12.50;4.70;;;;;;;;;;6250172;22;20014;-94
2023/05/19 00:30:53;;;;;;;18.65;5.10;;;;;;;;;;6250806;22;20008;-95
2023/05/19 00:33:21;;;;;;;11.63;5.35;;;;;;;;;;6250850;22;20008;-96
2023/05/19 00:35:51;;;;;;;10.10;4.82;;;;;;;;;;6250913;22;20019;-95
2023/05/19 00:38:26;;;;;;;9.57;5.00;;;;;;;;;;6249502;22;19992;-96
2023/05/19 00:40:54;;;;;;;19.45;5.22;;;;;;;;;;6249443;22;20414;-95
2023/05/19 00:43:24;;;;;;;9.43;5.20;;;;;;;;;;6249052;22;20299;-95
2023/05/19 00:45:52;;;;;;;15.38;5.13;;;;;;;;;;6249370;22;20000;-96
2023/05/19 00:48:20;;;;;;;21.40;5.78;;;;;;;;;;6249007;22;20007;-96
2023/05/19 00:51:05;;;;;;;12.02;5.80;;;;;;;;;;6250044;22;20000;-95
2023/05/19 00:53:42;;;;;;;14.30;4.80;;;;;;;;;;6248890;22;20003;-95
2023/05/19 00:56:10;;;;;;;11.07;4.72;;;;;;;;;;6249538;22;20015;-95
2023/05/19 00:58:38;;;;;;;14.93;5.22;;;;;;;;;;6249878;22;20011;-96
2023/05/19 01:01:06;;;;;;;12.57;5.55;;;;;;;;;;6250176;22;20082;-95
2023/05/19 01:03:52;;;;;;;11.15;5.88;;;;;;;;;;6250612;22;20000;-95
2023/05/19 01:06:22;;;;;;;15.98;5.45;;;;;;;;;;6249198;22;20046;-95
2023/05/19 01:08:50;;;;;;;9.07;5.03;;;;;;;;;;6248937;22;20067;-96
2023/05/19 01:11:21;;;;;;;10.63;5.30;;;;;;;;;;6249249;22;20019;-95
2023/05/19 01:13:51;;;;;;;11.68;5.07;;;;;;;;;;6247283;22;20004;-95
2023/05/19 01:16:23;;;;;;;12.05;5.80;;;;;;;;;;6249918;22;19998;-96
2023/05/19 01:19:16;;;;;;;10.50;4.47;;;;;;;;;;6248233;22;20387;-96
2023/05/19 01:21:47;;;;;;;15.07;5.22;;;;;;;;;;6250852;22;20004;-96
2023/05/19 01:24:16;;;;;;;12.90;4.70;;;;;;;;;;6247312;22;19999;-96
2023/05/19 01:26:41;;;;;;;10.52;4.55;;;;;;;;;;6248177;22;20016;-96
2023/05/19 01:29:13;;;;;;;8.68;4.82;;;;;;;;;;6248094;22;20007;-95
2023/05/19 01:31:49;;;;;;;8.23;4.60;;;;;;;;;;6247666;22;20003;-95
2023/05/19 01:34:15;;;;;;;13.80;5.30;;;;;;;;;;6247658;22;20186;-96
2023/05/19 01:36:44;;;;;;;11.48;4.85;;;;;;;;;;6248918;22;20010;-95
2023/05/19 01:39:21;;;;;;;13.25;5.25;;;;;;;;;;6246679;22;20082;-95
2023/05/19 01:41:47;;;;;;;14.27;5.55;;;;;;;;;;6249394;22;20094;-95
2023/05/19 01:44:14;;;;;;;9.05;5.45;;;;;;;;;;6249417;22;19991;-96
2023/05/19 01:46:40;;;;;;;12.55;5.13;;;;;;;;;;6247918;22;20018;-95
2023/05/19 01:49:06;;;;;;;10.93;5.35;;;;;;;;;;6247810;22;19996;-94
2023/05/19 01:51:31;;;;;;;9.98;4.95;;;;;;;;;;6247516;22;20474;-96
2023/05/19 01:53:57;;;;;;;14.20;5.35;;;;;;;;;;6249419;22;20015;-95
2023/05/19 01:56:28;;;;;;;10.98;5.18;;;;;;;;;;6245223;22;20022;-95
2023/05/19 01:59:05;;;;;;;12.03;5.07;;;;;;;;;;6248788;22;20627;-95
2023/05/19 02:01:42;;;;;;;10.40;5.40;;;;;;;;;;6246446;22;20326;-95
2023/05/19 02:04:21;;;;;;;15.32;6.10;;;;;;;;;;6249002;22;19996;-95
2023/05/19 02:07:05;;;;;;;11.15;5.63;;;;;;;;;;6248388;22;20039;-95
2023/05/19 02:09:34;;;;;;;14.00;5.53;;;;;;;;;;6273215;22;19995;-95
2023/05/19 02:12:09;;;;;;;10.45;5.38;;;;;;;;;;6247932;22;19999;-95
2023/05/19 02:14:40;;;;;;;10.05;5.00;;;;;;;;;;6249345;22;20004;-95
2023/05/19 02:17:14;;;;;;;13.97;6.00;;;;;;;;;;6248147;22;20004;-95
2023/05/19 02:19:45;;;;;;;13.18;5.70;;;;;;;;;;6248753;22;20213;-96
2023/05/19 02:22:15;;;;;;;12.25;5.80;;;;;;;;;;6247793;22;20431;-95
2023/05/19 02:24:59;;;;;;;13.77;6.13;;;;;;;;;;6247781;22;20013;-95
2023/05/19 02:27:26;;;;;;;11.48;5.85;;;;;;;;;;6248241;22;20386;-96
2023/05/19 02:30:01;;;;;;;10.73;5.68;;;;;;;;;;6245965;22;20062;-95
2023/05/19 02:32:31;;;;;;;17.48;6.13;;;;;;;;;;6247591;22;20419;-95
2023/05/19 02:34:59;;;;;;;12.00;6.10;;;;;;;;;;6247371;22;20447;-96
2023/05/19 02:37:29;;;;;;;18.35;6.03;;;;;;;;;;6248587;22;20076;-95
2023/05/19 02:40:00;;;;;;;12.13;5.72;;;;;;;;;;6245506;22;20000;-95
2023/05/19 02:42:43;;;;;;;15.68;6.38;;;;;;;;;;6249712;22;20395;-95
2023/05/19 02:45:08;;;;;;;13.98;6.38;;;;;;;;;;6248724;22;20517;-96
2023/05/19 02:47:37;;;;;;;14.02;6.07;;;;;;;;;;6248558;22;20042;-96
2023/05/19 02:50:02;;;;;;;15.52;7.32;;;;;;;;;;6248688;22;20004;-96
2023/05/19 02:52:30;;;;;;;11.02;6.07;;;;;;;;;;6249023;22;20126;-96
2023/05/19 02:54:58;;;;;;;12.63;5.75;;;;;;;;;;6248990;22;19996;-95
2023/05/19 02:57:33;;;;;;;;;;;;;;;;;;;;;
2023/05/19 02:59:59;;;;;;;14.50;5.72;;;;;;;;;;6276744;22;20066;-96
2023/05/19 03:02:24;;;;;;;11.57;5.93;;;;;;;;;;6249665;22;20312;-96
2023/05/19 03:04:52;;;;;;;13.18;6.15;;;;;;;;;;6250011;22;20082;-95
2023/05/19 03:07:23;;;;;;;13.23;6.80;;;;;;;;;;6248516;22;20072;-95
2023/05/19 03:09:52;;;;;;;12.50;6.10;;;;;;;;;;6249199;22;20004;-96
2023/05/19 03:12:17;;;;;;;12.52;5.50;;;;;;;;;;6249674;22;20343;-96
2023/05/19 03:14:43;;;;;;;13.38;7.10;;;;;;;;;;6249074;22;20014;-95
2023/05/19 03:17:11;;;;;;;15.57;6.55;;;;;;;;;;6248225;22;20014;-95
2023/05/19 03:19:36;;;;;;;18.45;7.95;;;;;;;;;;6248848;22;20031;-95
2023/05/19 03:22:02;;;;;;;17.83;6.82;;;;;;;;;;6248168;22;20007;-95
2023/05/19 03:24:27;;;;;;;16.40;6.60;;;;;;;;;;6247874;22;20007;-95
2023/05/19 03:26:58;;;;;;;13.40;6.27;;;;;;;;;;6251296;22;20019;-96
2023/05/19 03:29:23;;;;;;;17.00;7.10;;;;;;;;;;6249784;22;20008;-95
2023/05/19 03:31:48;;;;;;;14.95;6.28;;;;;;;;;;6249602;22;20010;-95
2023/05/19 03:34:48;;;;;;;18.27;6.60;;;;;;;;;;6249622;22;19995;-95
2023/05/19 03:37:14;;;;;;;12.27;6.67;;;;;;;;;;6199922;22;20026;-96
2023/05/19 03:39:42;;;;;;;15.45;6.40;;;;;;;;;;6251652;22;19999;-96
2023/05/19 03:42:08;;;;;;;16.63;6.95;;;;;;;;;;6247266;22;20019;-95
2023/05/19 03:44:35;;;;;;;16.92;7.07;;;;;;;;;;6250014;22;20415;-96
2023/05/19 03:47:01;;;;;;;12.27;6.47;;;;;;;;;;6246180;22;20470;-96
2023/05/19 03:49:26;;;;;;;13.57;6.60;;;;;;;;;;6246798;22;20008;-95
2023/05/19 03:51:51;;;;;;;15.73;6.68;;;;;;;;;;6249119;22;20004;-95
2023/05/19 03:54:18;;;;;;;19.27;6.93;;;;;;;;;;6251457;22;20006;-96
2023/05/19 03:56:43;;;;;;;12.07;6.57;;;;;;;;;;6247067;22;20442;-95
2023/05/19 03:59:12;;;;;;;16.23;7.43;;;;;;;;;;6249420;22;20083;-95
2023/05/19 04:01:46;;;;;;;13.32;6.47;;;;;;;;;;6250211;22;20015;-95
2023/05/19 04:04:20;;;;;;;13.10;6.47;;;;;;;;;;6249915;22;20430;-95
2023/05/19 04:06:45;;;;;;;12.95;6.63;;;;;;;;;;6248930;22;20020;-96
2023/05/19 04:09:15;;;;;;;13.65;6.78;;;;;;;;;;6248972;22;20008;-96
2023/05/19 04:11:41;;;;;;;14.23;7.25;;;;;;;;;;6248815;22;20482;-96
2023/05/19 04:14:06;;;;;;;15.57;6.45;;;;;;;;;;6248459;22;20003;-95
2023/05/19 04:16:32;;;;;;;15.80;6.93;;;;;;;;;;6249968;22;20418;-96
2023/05/19 04:18:57;;;;;;;19.10;7.88;;;;;;;;;;6250798;22;20004;-95
2023/05/19 04:21:25;;;;;;;11.30;6.07;;;;;;;;;;6250639;22;20004;-96
2023/05/19 04:23:50;;;;;;;16.30;7.13;;;;;;;;;;6251273;22;20107;-96
2023/05/19 04:26:16;;;;;;;13.75;6.93;;;;;;;;;;6251192;22;20376;-96
2023/05/19 04:29:00;;;;;;;14.63;6.78;;;;;;;;;;6250937;22;20418;-96
2023/05/19 04:31:35;;;;;;;13.15;6.82;;;;;;;;;;6250154;22;19996;-95
2023/05/19 04:34:02;;;;;;;16.13;6.50;;;;;;;;;;6249462;22;20452;-95
2023/05/19 04:36:28;;;;;;;13.10;6.85;;;;;;;;;;6249425;22;20007;-96
2023/05/19 04:39:05;;;;;;;13.88;5.90;;;;;;;;;;6250065;22;20030;-96
2023/05/19 04:41:32;;;;;;;15.07;6.20;;;;;;;;;;6249207;22;20027;-96
2023/05/19 04:43:57;;;;;;;14.95;7.07;;;;;;;;;;6250962;22;20123;-96
2023/05/19 04:46:25;;;;;;;15.65;6.85;;;;;;;;;;6246328;22;20050;-96
2023/05/19 04:49:00;;;;;;;17.67;7.47;;;;;;;;;;6249733;22;20008;-95
2023/05/19 04:51:30;;;;;;;16.17;6.75;;;;;;;;;;6248166;22;19999;-96
2023/05/19 04:54:00;;;;;;;15.85;7.63;;;;;;;;;;6250278;22;20007;-95
2023/05/19 04:56:31;;;;;;;15.48;7.28;;;;;;;;;;6250065;22;19999;-94
2023/05/19 04:59:12;;;;;;;13.68;7.63;;;;;;;;;;6250767;22;20010;-96
2023/05/19 05:01:41;;;;;;;13.32;6.88;;;;;;;;;;6251232;22;20011;-93
2023/05/19 05:04:07;;;;;;;16.95;7.78;;;;;;;;;;6249599;22;20006;-96
2023/05/19 05:06:32;;;;;;;15.23;7.65;;;;;;;;;;6249339;22;20079;-95
2023/05/19 05:08:58;;;;;;;14.18;7.30;;;;;;;;;;6249950;22;20086;-95
2023/05/19 05:11:26;;;;;;;14.32;6.88;;;;;;;;;;6250090;22;20007;-95
2023/05/19 05:13:52;;;;;;;11.27;6.50;;;;;;;;;;6248628;22;19996;-95
2023/05/19 05:16:17;;;;;;;15.18;6.93;;;;;;;;;;6249200;22;20486;-95
2023/05/19 05:18:43;;;;;;;19.23;7.65;;;;;;;;;;6250155;22;20090;-94
2023/05/19 05:21:11;;;;;;;12.13;6.25;;;;;;;;;;6249439;22;20086;-95
2023/05/19 05:23:47;;;;;;;19.65;7.90;;;;;;;;;;6250296;22;20312;-96
2023/05/19 05:26:17;;;;;;;18.50;8.05;;;;;;;;;;6247963;22;20019;-95
2023/05/19 05:28:44;;;;;;;16.02;6.90;;;;;;;;;;6249846;22;20010;-96
2023/05/19 05:31:10;;;;;;;19.10;7.65;;;;;;;;;;6250391;22;20015;-96
2023/05/19 05:33:36;;;;;;;22.27;8.13;;;;;;;;;;6251066;22;20012;-96
2023/05/19 05:36:03;;;;;;;13.32;7.32;;;;;;;;;;6249802;22;20000;-96
2023/05/19 05:38:29;;;;;;;19.88;7.55;;;;;;;;;;6250031;22;20027;-94
2023/05/19 05:40:57;;;;;;;15.20;7.57;;;;;;;;;;6249658;22;20004;-96
2023/05/19 05:43:22;;;;;;;14.23;7.35;;;;;;;;;;6250397;22;20422;-96
2023/05/19 05:45:48;;;;;;;17.30;6.95;;;;;;;;;;6249073;22;20018;-96
2023/05/19 05:48:21;;;;;;;20.80;7.57;;;;;;;;;;6249408;22;20004;-96
2023/05/19 05:50:47;;;;;;;15.63;7.32;;;;;;;;;;6251889;22;20000;-94
2023/05/19 05:53:20;;;;;;;15.93;7.68;;;;;;;;;;6248095;22;20019;-95
2023/05/19 05:55:45;;;;;;;;;;;;;;;;;;6251894;22;20010;-96
2023/05/19 05:58:13;;;;;;;16.17;7.05;;;;;;;;;;6274703;22;19899;-96
2023/05/19 06:00:39;;;;;;;18.20;7.50;;;;;;;;;;6249803;22;20011;-96
2023/05/19 06:03:04;;;;;;;15.25;7.80;;;;;;;;;;6249846;22;20008;-96
2023/05/19 06:05:29;;;;;;;18.08;7.55;;;;;;;;;;6247906;22;20007;-96
2023/05/19 06:08:00;;;;;;;18.83;7.53;;;;;;;;;;6247988;22;20007;-96
2023/05/19 06:10:27;;;;;;;15.02;7.15;;;;;;;;;;6250965;22;20000;-95
2023/05/19 06:12:53;;;;;;;16.75;6.93;;;;;;;;;;6247318;22;20007;-95
2023/05/19 06:15:18;;;;;;;13.70;6.70;;;;;;;;;;6250049;22;20004;-95
2023/05/19 06:17:46;;;;;;;17.10;7.05;;;;;;;;;;6251070;22;20091;-95
2023/05/19 06:20:12;;;;;;;12.60;6.63;;;;;;;;;;6251093;22;20422;-95
2023/05/19 06:22:41;;;;;;;15.48;5.93;;;;;;;;;;6248764;22;20000;-95
2023/05/19 06:25:09;;;;;;;10.57;6.22;;;;;;;;;;6248819;22;20000;-96
2023/05/19 06:27:35;;;;;;;18.60;6.63;;;;;;;;;;6248409;22;20039;-96
2023/05/19 06:30:00;;;;;;;13.80;7.47;;;;;;;;;;6246678;22;19999;-96
2023/05/19 06:32:28;;;;;;;13.13;7.18;;;;;;;;;;6249685;22;20003;-94
2023/05/19 06:34:54;;;;;;;20.35;7.45;;;;;;;;;;6249231;22;20020;-96
2023/05/19 06:37:23;;;;;;;12.68;6.40;;;;;;;;;;6248167;22;20702;-96
2023/05/19 06:39:52;;;;;;;12.85;6.97;;;;;;;;;;6253257;22;20403;-96
2023/05/19 06:42:21;;;;;;;15.35;7.18;;;;;;;;;;6251881;22;20000;-95
2023/05/19 06:44:50;;;;;;;16.58;7.63;;;;;;;;;;6257936;22;20095;-96
2023/05/19 06:47:15;;;;;;;21.38;7.70;;;;;;;;;;6251535;22;20071;-96
2023/05/19 06:49:49;;;;;;;14.90;7.10;;;;;;;;;;6253556;22;20010;-96
2023/05/19 06:52:14;;;;;;;15.98;7.05;;;;;;;;;;6252985;22;20010;-95
2023/05/19 06:54:40;;;;;;;15.75;6.45;;;;;;;;;;6251638;22;20019;-96
2023/05/19 06:57:05;;;;;;;9.55;5.38;;;;;;;;;;6249057;22;20356;-96
2023/05/19 06:59:30;;;;;;;14.93;6.13;;;;;;;;;;6251198;22;20126;-96
2023/05/19 07:02:13;;;;;;;13.40;7.00;;;;;;;;;;6248688;22;19999;-95
2023/05/19 07:04:41;;;;;;;13.27;5.90;;;;;;;;;;6273919;22;20092;-95
2023/05/19 07:07:06;;;;;;;16.77;6.95;;;;;;;;;;6247481;22;20016;-95
2023/05/19 07:09:35;;;;;;;13.75;6.53;;;;;;;;;;6246318;22;20002;-96
2023/05/19 07:12:00;;;;;;;16.50;6.18;;;;;;;;;;6249510;22;20007;-95
2023/05/19 07:14:36;;;;;;;;;;;;;;;;;;;;;
2023/05/19 07:17:10;;;;;;;12.82;6.40;;;;;;;;;;6275058;22;20064;-96
2023/05/19 07:19:43;;;;;;;13.98;6.82;;;;;;;;;;6250905;22;19999;-96
2023/05/19 07:22:10;;;;;;;15.25;6.82;;;;;;;;;;6250988;22;19995;-96
2023/05/19 07:24:41;;;;;;;14.88;6.28;;;;;;;;;;6249294;22;20000;-96
2023/05/19 07:27:12;;;;;;;14.85;6.55;;;;;;;;;;6250117;22;20008;-96
2023/05/19 07:29:45;;;;;;;14.05;5.85;;;;;;;;;;6250008;22;20318;-95
2023/05/19 07:32:13;;;;;;;14.20;5.95;;;;;;;;;;6248102;22;20071;-96
2023/05/19 10:23:12;;;;;;;3.95;1.50;;;;;;;;;;6192693;22;20016;-96
2023/05/19 10:25:38;;;;;;;9.02;2.40;;;;;;;;;;6206547;23;20015;-93
2023/05/19 10:28:24;;;;;;;4.65;2.80;;;;;;;;;;6210810;23;20044;-95
2023/05/19 10:30:55;;;;;;;8.85;2.40;;;;;;;;;;6238857;23;20035;-92
2023/05/19 10:33:28;;;;;;;8.85;2.30;;;;;;;;;;6214738;23;19992;-94
2023/05/19 10:36:22;;;;;;;7.72;1.95;;;;;;;;;;6233321;23;19999;-95
2023/05/19 10:39:13;;;;;;;5.85;1.88;;;;;;;;;;6224315;23;20534;-93
2023/05/19 10:41:57;;;;;;;10.43;2.22;;;;;;;;;;6206277;23;20020;-92
2023/05/19 10:44:48;;;;;;;8.40;1.77;;;;;;;;;;6234953;23;20064;-93
2023/05/19 10:47:14;;;;;;;6.80;1.90;;;;;;;;;;6207214;23;20077;-93
2023/05/19 10:49:48;;;;;;;6.32;2.00;;;;;;;;;;6207257;23;20011;-93
2023/05/19 10:52:27;;;;;;;7.03;2.08;;;;;;;;;;6234591;23;20004;-94
2023/05/19 10:55:16;;;;;;;4.22;1.90;;;;;;;;;;6233545;23;20008;-91
2023/05/19 10:58:09;;;;;;;3.83;1.85;;;;;;;;;;6234001;23;20001;-95
2023/05/19 11:00:47;;;;;;;5.18;2.25;;;;;;;;;;6185969;23;20075;-92
2023/05/19 11:03:13;;;;;;;7.78;2.08;;;;;;;;;;6232541;23;20012;-94
2023/05/19 11:05:45;;;;;;;11.75;1.80;;;;;;;;;;6207631;23;19997;-93
2023/05/19 11:08:17;;;;;;;9.57;2.10;;;;;;;;;;6232379;23;20012;-94
2023/05/19 11:10:45;;;;;;;5.70;1.63;;;;;;;;;;6206610;23;20000;-94
2023/05/19 11:13:39;;;;;;;3.38;1.58;;;;;;;;;;6232201;23;20004;-94
2023/05/19 11:16:08;;;;;;;6.30;2.15;;;;;;;;;;6202419;23;20052;-94
2023/05/19 11:18:55;;;;;;;7.82;1.50;;;;;;;;;;6228951;23;20036;-93
2023/05/19 11:21:51;;;;;;;5.38;1.42;;;;;;;;;;6230749;23;20001;-95
2023/05/19 11:24:44;;;;;;;5.57;1.65;;;;;;;;;;6244715;23;20016;-93
2023/05/19 11:27:26;;;;;;;7.68;1.48;;;;;;;;;;6218125;22;20004;-95
2023/05/19 11:29:58;;;;;;;7.57;2.03;;;;;;;;;;6235235;23;20004;-95
2023/05/19 11:32:28;;;;;;;10.60;1.92;;;;;;;;;;6263009;23;19984;-95
2023/05/19 11:34:54;;;;;;;5.43;1.55;;;;;;;;;;6238121;23;20031;-93
2023/05/19 11:37:20;;;;;;;4.03;1.40;;;;;;;;;;6265065;22;20004;-95
2023/05/19 11:39:51;;;;;;;7.57;1.52;;;;;;;;;;6263990;23;20021;-93
2023/05/19 11:42:25;;;;;;;3.58;1.13;;;;;;;;;;6264738;23;20003;-94
2023/05/19 11:45:09;;;;;;;8.15;1.50;;;;;;;;;;6238201;23;20000;-94
2023/05/19 11:47:38;;;;;;;8.15;1.65;;;;;;;;;;6264027;22;20091;-94
2023/05/19 11:50:08;;;;;;;6.03;1.40;;;;;;;;;;6263272;23;20032;-94
2023/05/19 11:52:36;;;;;;;3.35;1.60;;;;;;;;;;6266020;23;20011;-94
2023/05/19 11:55:01;;;;;;;4.93;1.67;;;;;;;;;;6262905;23;20013;-94
2023/05/19 11:57:27;;;;;;;3.08;1.45;;;;;;;;;;6238690;23;20004;-94
2023/05/19 11:59:55;;;;;;;4.65;1.80;;;;;;;;;;6239977;23;20000;-95
2023/05/19 12:02:26;;;;;;;5.13;1.50;;;;;;;;;;6264126;22;20070;-94
2023/05/19 12:05:11;;;;;;;3.90;1.20;;;;;;;;;;6238087;23;20011;-95
2023/05/19 12:07:48;;;;;;;5.32;1.35;;;;;;;;;;6239681;23;20098;-94
2023/05/19 12:10:14;;;;;;;5.82;1.40;;;;;;;;;;6266967;23;20042;-95
2023/05/19 12:12:45;;;;;;;4.88;1.20;;;;;;;;;;6212859;23;20008;-94
2023/05/19 12:15:38;;;;;;;6.80;1.38;;;;;;;;;;6266015;23;20034;-94
2023/05/19 12:18:12;;;;;;;4.72;1.10;;;;;;;;;;6265033;22;20012;-94
2023/05/19 12:20:45;;;;;;;4.72;1.30;;;;;;;;;;6270211;22;20009;-95
2023/05/19 12:23:15;;;;;;;3.08;1.15;;;;;;;;;;6268017;23;20061;-94
2023/05/19 12:26:09;;;;;;;3.03;1.10;;;;;;;;;;6266015;23;20079;-94
2023/05/19 12:28:45;;;;;;;6.60;1.63;;;;;;;;;;6239410;23;20695;-94
2023/05/19 12:31:10;;;;;;;3.53;1.35;;;;;;;;;;6240966;23;20095;-93
2023/05/19 12:33:39;;;;;;;5.57;1.90;;;;;;;;;;6240863;23;19996;-94
2023/05/19 12:39:27;;;;;;;6.32;1.50;;;;;;;;;;6240653;22;20055;-95
2023/05/19 12:42:17;;;;;;;4.68;1.45;;;;;;;;;;6238944;23;19989;-94
2023/05/19 12:44:51;;;;;;;5.53;1.75;;;;;;;;;;6240045;22;19997;-94
2023/05/19 12:47:29;;;;;;;5.20;1.42;;;;;;;;;;6211329;23;20019;-94
2023/05/19 12:50:01;;;;;;;4.22;1.70;;;;;;;;;;6239111;22;20023;-94
2023/05/19 12:52:34;;;;;;;2.22;1.20;;;;;;;;;;6237653;23;20012;-94
2023/05/19 12:55:13;;;;;;;7.18;1.83;;;;;;;;;;6188815;23;19988;-93
2023/05/19 12:57:43;;;;;;;6.43;1.38;;;;;;;;;;6238209;23;20117;-95
2023/05/19 13:00:27;;;;;;;6.55;1.70;;;;;;;;;;6238100;23;20014;-95
2023/05/19 13:03:24;;;;;;;5.07;1.63;;;;;;;;;;6239069;23;19993;-95
2023/05/19 13:06:10;;;;;;;5.82;1.42;;;;;;;;;;6238423;22;19992;-94
2023/05/19 13:08:54;;;;;;;4.90;1.60;;;;;;;;;;6236901;22;20043;-95
2023/05/19 13:11:20;;;;;;;5.30;1.23;;;;;;;;;;6239242;22;19992;-94
2023/05/19 13:13:53;;;;;;;7.13;2.05;;;;;;;;;;6239239;22;20004;-95
2023/05/19 13:16:21;;;;;;;7.47;1.52;;;;;;;;;;6213131;23;19985;-93
2023/05/19 13:18:48;;;;;;;4.65;1.40;;;;;;;;;;6232573;23;20012;-93
2023/05/19 13:21:16;;;;;;;5.20;1.50;;;;;;;;;;6205389;23;20011;-95
2023/05/19 13:23:45;;;;;;;6.57;1.23;;;;;;;;;;6233672;22;20007;-94
2023/05/19 13:26:20;;;;;;;3.33;1.38;;;;;;;;;;6230600;22;20060;-95
2023/05/19 13:29:08;;;;;;;4.55;1.50;;;;;;;;;;6239078;22;20001;-95
2023/05/19 13:31:56;;;;;;;4.07;1.30;;;;;;;;;;6212513;23;20052;-94
2023/05/19 13:34:24;;;;;;;4.18;1.20;;;;;;;;;;6238572;22;20011;-95
2023/05/19 13:36:54;;;;;;;5.68;1.63;;;;;;;;;;6238851;22;20000;-95
2023/05/19 13:39:51;;;;;;;6.95;1.40;;;;;;;;;;6236616;22;20004;-95
2023/05/19 13:42:48;;;;;;;5.03;1.67;;;;;;;;;;6267740;22;19992;-94
2023/05/19 13:45:19;;;;;;;4.45;1.25;;;;;;;;;;6240023;23;20039;-95
2023/05/19 13:50:43;;;;;;;9.95;2.03;;;;;;;;;;6238171;23;20016;-94
2023/05/19 13:53:11;;;;;;;6.22;1.48;;;;;;;;;;6238501;23;19993;-94
2023/05/19 13:55:56;;;;;;;3.72;1.42;;;;;;;;;;6236172;22;20056;-96
2023/05/19 13:58:37;;;;;;;7.40;1.88;;;;;;;;;;6237284;22;20018;-95
2023/05/19 14:01:22;;;;;;;2.83;1.63;;;;;;;;;;6238438;22;19999;-94
2023/05/19 14:03:48;;;;;;;5.60;1.50;;;;;;;;;;6210484;23;20008;-94
2023/05/19 14:06:19;;;;;;;3.00;1.27;;;;;;;;;;6233417;23;20044;-94
2023/05/19 14:09:05;;;;;;;5.45;1.83;;;;;;;;;;6230990;23;20090;-94
2023/05/19 14:11:51;;;;;;;11.15;1.88;;;;;;;;;;6234809;23;19981;-94
2023/05/19 14:14:23;;;;;;;3.17;1.27;;;;;;;;;;6237532;23;19992;-95
2023/05/19 14:16:54;;;;;;;2.20;1.27;;;;;;;;;;6235192;23;20001;-94
2023/05/19 14:19:40;;;;;;;6.28;1.70;;;;;;;;;;6236794;23;20000;-94
2023/05/19 14:22:16;;;;;;;4.90;1.70;;;;;;;;;;6227187;23;20048;-94
2023/05/19 14:24:42;;;;;;;5.97;1.80;;;;;;;;;;6232401;23;20007;-93
2023/05/19 14:27:28;;;;;;;6.80;2.00;;;;;;;;;;6254919;22;20019;-94
2023/05/19 14:29:54;;;;;;;5.85;1.42;;;;;;;;;;6239767;23;20004;-94
2023/05/19 14:32:22;;;;;;;2.95;1.70;;;;;;;;;;6239802;23;19993;-93
2023/05/19 14:34:51;;;;;;;4.22;1.52;;;;;;;;;;6240111;23;20004;-94
2023/05/19 14:37:30;;;;;;;4.47;1.35;;;;;;;;;;6268048;22;19980;-93
2023/05/19 14:40:20;;;;;;;6.82;2.05;;;;;;;;;;6266071;23;20075;-94
2023/05/19 14:43:27;;;;;;;5.00;1.58;;;;;;;;;;6267265;23;20020;-93
2023/05/19 14:45:54;;;;;;;5.85;2.03;;;;;;;;;;6234427;23;20099;-93
2023/05/19 14:48:20;;;;;;;4.38;1.45;;;;;;;;;;6267645;22;20043;-94
2023/05/19 14:50:55;;;;;;;3.45;1.38;;;;;;;;;;6266982;23;20004;-93
2023/05/19 14:53:24;;;;;;;7.30;1.52;;;;;;;;;;6241521;23;20000;-95
2023/05/19 14:56:14;;;;;;;7.63;2.20;;;;;;;;;;6241967;23;20008;-94
2023/05/19 14:58:59;;;;;;;6.65;1.35;;;;;;;;;;6265148;23;20003;-93
2023/05/19 15:01:41;;;;;;;7.57;1.90;;;;;;;;;;6266813;23;20079;-93
2023/05/19 15:04:23;;;;;;;4.57;1.42;;;;;;;;;;6268434;22;20003;-93
2023/05/19 15:06:59;;;;;;;2.65;1.25;;;;;;;;;;6240580;23;20032;-93
2023/05/19 15:09:25;;;;;;;5.10;1.63;;;;;;;;;;6282527;22;20008;-94
2023/05/19 15:11:57;;;;;;;5.47;1.60;;;;;;;;;;6272719;22;19999;-93
2023/05/19 15:14:38;;;;;;;9.63;1.70;;;;;;;;;;6271455;22;20031;-93
2023/05/19 15:17:12;;;;;;;5.43;1.83;;;;;;;;;;6301199;22;19988;-94
2023/05/19 15:19:58;;;;;;;3.92;1.50;;;;;;;;;;6266685;22;20020;-94
2023/05/19 15:25:51;;;;;;;5.35;1.52;;;;;;;;;;6262950;22;20011;-94
2023/05/19 15:28:42;;;;;;;2.88;1.40;;;;;;;;;;6248676;22;20027;-94
2023/05/19 15:31:10;;;;;;;3.70;1.70;;;;;;;;;;6241597;22;20011;-94
2023/05/19 15:36:22;;;;;;;4.28;1.15;;;;;;;;;;6260716;22;20008;-94
2023/05/19 15:38:53;;;;;;;4.40;1.25;;;;;;;;;;6289007;22;19994;-94
2023/05/19 15:41:20;;;;;;;3.92;1.13;;;;;;;;;;6271592;22;20000;-94
2023/05/19 15:43:52;;;;;;;7.25;2.25;;;;;;;;;;6300551;22;20018;-93
2023/05/19 15:46:25;;;;;;;5.65;1.65;;;;;;;;;;6299777;22;19996;-94
2023/05/19 15:48:54;;;;;;;9.98;1.60;;;;;;;;;;6305493;22;20034;-94
2023/05/19 15:51:26;;;;;;;10.35;1.30;;;;;;;;;;6330959;22;20011;-92
2023/05/19 15:54:14;;;;;;;4.75;1.50;;;;;;;;;;6331299;22;20003;-93
2023/05/19 15:57:19;;;;;;;2.97;1.20;;;;;;;;;;6331222;22;20050;-93
2023/05/19 16:00:23;;;;;;;5.47;1.20;;;;;;;;;;6269758;22;20015;-93
2023/05/19 16:03:11;;;;;;;9.27;1.67;;;;;;;;;;6250586;22;20064;-94
2023/05/19 16:05:53;;;;;;;4.93;1.40;;;;;;;;;;6259533;22;20051;-94
2023/05/19 16:09:01;;;;;;;4.25;1.30;;;;;;;;;;6263616;22;20008;-94
2023/05/19 16:11:26;;;;;;;5.40;1.80;;;;;;;;;;6267747;23;20075;-94
2023/05/19 16:13:54;;;;;;;6.95;1.50;;;;;;;;;;6265826;23;20003;-96
2023/05/19 16:16:22;;;;;;;6.38;1.52;;;;;;;;;;6262889;23;20007;-96
2023/05/19 16:18:47;;;;;;;6.53;1.73;;;;;;;;;;6263743;23;20064;-95
2023/05/19 16:21:16;;;;;;;6.25;1.30;;;;;;;;;;6267788;23;20015;-96
2023/05/19 16:23:42;;;;;;;7.10;1.90;;;;;;;;;;6241331;23;20000;-95
2023/05/19 16:26:10;;;;;;;5.25;1.60;;;;;;;;;;6239892;23;20012;-95
2023/05/19 16:28:37;;;;;;;4.57;1.48;;;;;;;;;;6239890;23;19992;-96
2023/05/19 16:31:04;;;;;;;3.83;1.20;;;;;;;;;;6241007;23;20036;-96
2023/05/19 16:33:31;;;;;;;3.47;1.70;;;;;;;;;;6239495;23;20016;-95
2023/05/19 16:35:57;;;;;;;3.60;1.27;;;;;;;;;;6239870;23;20007;-95
2023/05/19 16:38:22;;;;;;;2.17;1.30;;;;;;;;;;6215290;23;20008;-96
2023/05/19 16:40:50;;;;;;;7.45;1.60;;;;;;;;;;6239054;23;20043;-95
2023/05/19 16:43:16;;;;;;;5.55;1.48;;;;;;;;;;6239773;23;20000;-96
2023/05/19 16:45:41;;;;;;;5.22;1.60;;;;;;;;;;6232874;23;20004;-93
2023/05/19 16:48:10;;;;;;;9.38;1.90;;;;;;;;;;6232541;23;20047;-94
2023/05/19 16:50:35;;;;;;;4.97;1.60;;;;;;;;;;6230657;23;20015;-96
2023/05/19 16:53:01;;;;;;;6.15;1.73;;;;;;;;;;6257850;23;20004;-94
2023/05/19 16:55:26;;;;;;;2.45;1.20;;;;;;;;;;6204882;23;20135;-96
2023/05/19 16:57:52;;;;;;;3.53;1.38;;;;;;;;;;6230775;23;20015;-95
2023/05/19 17:00:19;;;;;;;5.07;1.70;;;;;;;;;;6229924;23;19996;-94
2023/05/19 17:02:44;;;;;;;4.85;1.63;;;;;;;;;;6205532;23;20005;-94
2023/05/19 17:05:09;;;;;;;3.70;1.73;;;;;;;;;;6230147;23;20032;-95
2023/05/19 17:07:35;;;;;;;4.38;1.52;;;;;;;;;;6233795;23;20075;-94
2023/05/19 17:10:00;;;;;;;4.50;1.30;;;;;;;;;;6235519;23;20007;-96
2023/05/19 17:12:25;;;;;;;6.30;1.38;;;;;;;;;;6235125;23;20019;-96
2023/05/19 17:14:51;;;;;;;2.30;1.38;;;;;;;;;;6234933;23;19996;-96
2023/05/19 17:17:18;;;;;;;5.18;1.33;;;;;;;;;;6262141;23;20004;-94
2023/05/19 17:19:43;;;;;;;6.03;1.58;;;;;;;;;;6236396;23;20088;-96
2023/05/19 17:22:09;;;;;;;6.70;1.33;;;;;;;;;;6236295;23;20012;-96
2023/05/19 17:24:34;;;;;;;11.15;1.75;;;;;;;;;;6239594;23;20489;-96
2023/05/19 17:27:00;;;;;;;3.55;1.63;;;;;;;;;;6215849;23;20017;-95
2023/05/19 17:29:29;;;;;;;7.82;2.00;;;;;;;;;;6267427;22;20027;-95
2023/05/19 17:31:57;;;;;;;2.85;1.30;;;;;;;;;;6218914;23;20023;-94
2023/05/19 17:34:24;;;;;;;4.10;1.75;;;;;;;;;;6269545;23;20024;-95
2023/05/19 17:37:10;;;;;;;7.07;1.60;;;;;;;;;;6267287;23;20023;-95
2023/05/19 17:39:35;;;;;;;9.15;1.50;;;;;;;;;;6239644;23;20000;-94
2023/05/19 17:42:01;;;;;;;3.20;1.40;;;;;;;;;;6267956;23;20036;-94
2023/05/19 17:44:27;;;;;;;8.70;1.77;;;;;;;;;;6239987;23;20004;-94
2023/05/19 17:46:53;;;;;;;4.13;1.80;;;;;;;;;;6240272;23;20023;-95
2023/05/19 17:49:24;;;;;;;7.10;1.65;;;;;;;;;;6267423;23;20018;-94
2023/05/19 17:51:50;;;;;;;7.13;1.58;;;;;;;;;;6265695;23;20004;-96
2023/05/19 17:54:20;;;;;;;4.00;1.55;;;;;;;;;;6236076;23;20028;-95
2023/05/19 17:56:56;;;;;;;3.58;1.50;;;;;;;;;;6239647;23;20004;-96
2023/05/19 17:59:22;;;;;;;4.22;1.83;;;;;;;;;;6234756;23;20084;-95
2023/05/19 18:01:50;;;;;;;4.45;1.60;;;;;;;;;;6232168;23;20371;-94
2023/05/19 18:04:16;;;;;;;6.25;1.88;;;;;;;;;;6238741;23;20000;-94
2023/05/19 18:06:42;;;;;;;3.33;1.38;;;;;;;;;;6236298;23;20032;-96
2023/05/19 18:09:13;;;;;;;5.00;1.58;;;;;;;;;;6237934;23;20004;-95
2023/05/19 18:11:40;;;;;;;3.22;1.60;;;;;;;;;;6262647;23;20008;-95